Time;durP1;ratioP1;P1;durP2;ratioP2;P2;SDS_P1;SDS_P2;PMS_P1;PMS_P2;Temp;Humidity;BMP_temperature;BMP_pressure;BME280_temperature;BME280_humidity;BME280_pressure;Samples;Min_cycle;Max_cycle;Signal;HPM_P1;HPM_P2
2023/10/10 00:02:19;;;;;;;;;;;16.70;99.20;;;;;;5100281;28;19915;-71
2023/10/10 00:04:47;;;;;;;;;;;16.70;99.30;;;;;;5124204;27;19912;-71
2023/10/10 00:07:14;;;;;;;;;;;16.70;99.30;;;;;;5098362;28;20368;-71
2023/10/10 00:09:45;;;;;;;;;;;16.70;99.30;;;;;;5092999;28;19916;-71
2023/10/10 00:12:18;;;;;;;;;;;16.70;99.40;;;;;;5090347;28;19966;-71
2023/10/10 00:14:50;;;;;;;;;;;16.70;99.40;;;;;;5089837;28;20470;-71
2023/10/10 00:17:16;;;;;;;;;;;16.70;99.40;;;;;;5092360;28;19982;-71
2023/10/10 00:19:45;;;;;;;;;;;16.70;99.40;;;;;;5091348;28;19911;-71
2023/10/10 00:22:10;;;;;;;;;;;16.70;99.40;;;;;;5091525;28;19922;-71
2023/10/10 00:24:36;;;;;;;;;;;16.70;99.40;;;;;;5091023;28;19912;-71
2023/10/10 00:27:14;;;;;;;;;;;16.60;99.30;;;;;;5083686;28;19973;-71
2023/10/10 00:29:43;;;;;;;;;;;16.70;99.30;;;;;;5091148;28;19912;-71
2023/10/10 00:32:17;;;;;;;;;;;16.60;99.30;;;;;;5091054;28;19919;-71
2023/10/10 00:34:47;;;;;;;;;;;16.60;99.30;;;;;;5090884;28;19924;-71
2023/10/10 00:37:13;;;;;;;;;;;16.60;99.30;;;;;;5098230;28;20315;-71
2023/10/10 00:39:38;;;;;;;;;;;16.60;99.30;;;;;;5091248;28;20517;-71
2023/10/10 00:42:06;;;;;;;;;;;16.70;99.30;;;;;;5097691;28;19995;-71
2023/10/10 00:44:37;;;;;;;;;;;16.60;99.20;;;;;;5089469;28;19908;-71
2023/10/10 00:47:03;;;;;;;;;;;16.60;99.20;;;;;;5093329;28;19908;-71
2023/10/10 00:49:31;;;;;;;;;;;16.60;99.20;;;;;;5090783;28;19994;-71
2023/10/10 00:52:01;;;;;;;;;;;16.60;99.20;;;;;;5090862;28;19908;-71
2023/10/10 00:54:31;;;;;;;;;;;16.60;99.20;;;;;;5090355;28;20539;-71
2023/10/10 00:56:57;;;;;;;;;;;16.60;99.20;;;;;;5089300;28;19912;-71
2023/10/10 00:59:35;;;;;;;;;;;16.60;99.30;;;;;;5090645;28;19931;-71
2023/10/10 01:02:04;;;;;;;;;;;16.60;99.30;;;;;;5083435;28;19949;-71
2023/10/10 01:04:39;;;;;;;;;;;16.60;99.30;;;;;;5088249;28;20276;-71
2023/10/10 01:07:07;;;;;;;;;;;16.50;99.30;;;;;;5090300;28;19915;-71
2023/10/10 01:09:34;;;;;;;;;;;16.60;99.30;;;;;;5090100;28;19927;-71
2023/10/10 01:12:04;;;;;;;;;;;16.50;99.30;;;;;;5089282;28;19915;-71
2023/10/10 01:14:30;;;;;;;;;;;16.50;99.30;;;;;;5088805;28;20024;-71
2023/10/10 01:16:58;;;;;;;;;;;16.50;99.30;;;;;;5090278;28;20049;-71
2023/10/10 01:19:29;;;;;;;;;;;16.50;99.30;;;;;;5090500;28;19963;-71
2023/10/10 01:21:58;;;;;;;;;;;16.50;99.30;;;;;;5090511;28;19912;-71
2023/10/10 01:24:26;;;;;;;;;;;16.60;99.40;;;;;;5088950;28;19960;-71
2023/10/10 01:26:53;;;;;;;;;;;16.60;99.30;;;;;;5082353;28;20334;-71
2023/10/10 01:29:25;;;;;;;;;;;16.50;99.20;;;;;;5090117;28;20365;-71
2023/10/10 01:31:52;;;;;;;;;;;16.50;99.20;;;;;;5088631;28;19908;-71
2023/10/10 01:34:30;;;;;;;;;;;16.50;99.20;;;;;;5088340;28;20399;-71
2023/10/10 01:37:20;;;;;;;;;;;16.50;99.20;;;;;;5088445;28;19911;-71
2023/10/10 01:39:53;;;;;;;;;;;16.50;99.20;;;;;;5092244;28;20670;-71
2023/10/10 01:42:24;;;;;;;;;;;16.50;99.20;;;;;;5089772;28;19919;-71
2023/10/10 01:44:51;;;;;;;;;;;16.50;99.20;;;;;;5088244;28;19908;-71
2023/10/10 01:47:26;;;;;;;;;;;16.50;99.10;;;;;;5097598;28;19912;-71
2023/10/10 01:49:52;;;;;;;;;;;16.50;99.20;;;;;;5088180;28;19998;-71
2023/10/10 01:52:20;;;;;;;;;;;16.50;99.20;;;;;;5089726;28;19963;-71
2023/10/10 01:54:52;;;;;;;;;;;16.50;99.20;;;;;;5087704;28;20261;-71
2023/10/10 01:57:21;;;;;;;;;;;16.50;99.20;;;;;;5089956;28;19957;-71
2023/10/10 01:59:51;;;;;;;;;;;16.50;99.20;;;;;;5113893;27;19919;-71
2023/10/10 02:02:21;;;;;;;;;;;16.50;99.10;;;;;;5089497;28;20057;-71
2023/10/10 02:04:47;;;;;;;;;;;16.50;99.20;;;;;;5089029;28;20006;-71
2023/10/10 02:07:23;;;;;;;;;;;16.50;99.20;;;;;;5097983;28;20052;-71
2023/10/10 02:10:13;;;;;;;;;;;16.50;99.20;;;;;;5089392;28;20273;-71
2023/10/10 02:12:44;;;;;;;;;;;16.50;99.20;;;;;;5088947;28;19920;-71
2023/10/10 02:15:15;;;;;;;;;;;16.40;99.20;;;;;;5096379;28;19912;-71
2023/10/10 02:17:50;;;;;;;;;;;16.40;99.10;;;;;;5091459;28;20005;-71
2023/10/10 02:20:50;;;;;;;;;;;16.40;99.20;;;;;;5089435;28;20445;-71
2023/10/10 02:30:45;;;;;;;;;;;16.40;99.20;;;;;;5090818;28;19915;-71
2023/10/10 02:33:19;;;;;;;;;;;16.40;99.20;;;;;;5093483;28;19916;-71
2023/10/10 02:35:55;;;;;;;;;;;16.50;99.20;;;;;;5088850;28;19912;-71
2023/10/10 02:38:40;;;;;;;;;;;16.50;99.20;;;;;;5089324;28;20003;-71
2023/10/10 02:43:54;;;;;;;;;;;16.50;99.20;;;;;;5088882;28;19915;-71
2023/10/10 02:46:37;;;;;;;;;;;16.50;99.30;;;;;;5090247;28;19922;-71
2023/10/10 02:49:09;;;;;;;;;;;16.40;99.20;;;;;;5082176;28;19908;-71
2023/10/10 02:51:45;;;;;;;;;;;16.40;99.20;;;;;;5088896;28;19916;-71
2023/10/10 02:56:56;;;;;;;;;;;16.40;99.20;;;;;;5088806;28;20007;-71
2023/10/10 02:59:23;;;;;;;;;;;16.40;99.20;;;;;;5103537;28;19918;-71
2023/10/10 03:04:22;;;;;;;;;;;16.40;99.20;;;;;;5089065;28;19916;-71
2023/10/10 03:06:48;;;;;;;;;;;16.40;99.20;;;;;;5088906;28;19912;-71
2023/10/10 03:09:38;;;;;;;;;;;16.40;99.20;;;;;;5087750;28;19961;-71
2023/10/10 03:12:05;;;;;;;;;;;16.40;99.20;;;;;;5088550;28;20463;-71
2023/10/10 03:14:34;;;;;;;;;;;16.40;99.20;;;;;;5087072;28;19916;-71
2023/10/10 03:17:05;;;;;;;;;;;16.40;99.20;;;;;;5089887;28;19908;-71
2023/10/10 03:19:38;;;;;;;;;;;16.40;99.30;;;;;;5105586;28;20023;-71
2023/10/10 03:22:27;;;;;;;;;;;16.40;99.30;;;;;;5088763;28;19908;-71
2023/10/10 03:31:06;;;;;;;;;;;16.40;99.40;;;;;;5097044;28;19977;-71
2023/10/10 03:33:11;;;;;;;;;;;16.30;99.60;;;;;;5083793;28;19920;-71
2023/10/10 03:35:58;;;;;;;;;;;16.40;99.40;;;;;;5088120;28;19912;-71
2023/10/10 03:39:15;;;;;;;;;;;16.40;99.40;;;;;;5091126;28;19955;-71
2023/10/10 05:23:29;;;;;;;;;;;16.40;99.40;;;;;;5085760;28;19912;-71
2023/10/10 05:25:31;;;;;;;;;;;16.00;99.90;;;;;;5097737;28;20008;-71
2023/10/10 05:27:58;;;;;;;;;;;16.00;99.90;;;;;;5082019;28;20377;-71
2023/10/10 05:30:45;;;;;;;;;;;16.00;99.80;;;;;;5090028;28;19998;-71
2023/10/10 05:33:10;;;;;;;;;;;16.00;99.90;;;;;;5089504;28;19919;-71
2023/10/10 05:35:49;;;;;;;;;;;16.00;99.80;;;;;;5087307;28;19912;-72
2023/10/10 05:38:19;;;;;;;;;;;15.90;99.80;;;;;;5090340;28;19982;-71
2023/10/10 05:40:47;;;;;;;;;;;15.90;99.80;;;;;;5088891;28;20486;-71
2023/10/10 05:43:15;;;;;;;;;;;15.90;99.80;;;;;;5088902;28;20373;-71
2023/10/10 05:45:44;;;;;;;;;;;15.90;99.80;;;;;;5088069;28;20312;-71
2023/10/10 05:48:10;;;;;;;;;;;15.90;99.80;;;;;;5088289;28;19916;-71
2023/10/10 05:50:37;;;;;;;;;;;15.90;99.80;;;;;;5089608;28;19912;-70
2023/10/10 05:53:06;;;;;;;;;;;15.90;99.80;;;;;;5090987;28;19922;-70
2023/10/10 05:55:35;;;;;;;;;;;15.90;99.90;;;;;;5089410;28;19909;-70
2023/10/10 05:58:02;;;;;;;;;;;15.90;99.90;;;;;;5089263;28;19919;-70
2023/10/10 06:00:37;;;;;;;;;;;15.90;99.90;;;;;;5089713;28;19912;-70
2023/10/10 06:03:06;;;;;;;;;;;15.90;99.90;;;;;;5089737;28;19908;-70
2023/10/10 06:05:32;;;;;;;;;;;15.80;99.90;;;;;;5089176;28;19912;-70
2023/10/10 06:07:59;;;;;;;;;;;15.90;99.90;;;;;;5089595;28;19916;-70
2023/10/10 06:10:28;;;;;;;;;;;15.90;99.90;;;;;;5095926;28;20388;-70
2023/10/10 06:12:56;;;;;;;;;;;15.80;99.90;;;;;;5089071;28;19974;-70
2023/10/10 06:15:21;;;;;;;;;;;15.90;99.80;;;;;;5088786;28;20448;-70
2023/10/10 06:17:57;;;;;;;;;;;15.90;99.90;;;;;;5088499;28;19947;-70
2023/10/10 06:20:23;;;;;;;;;;;15.90;99.80;;;;;;5090366;28;20313;-70
2023/10/10 06:22:49;;;;;;;;;;;15.80;99.80;;;;;;5086230;28;19913;-70
2023/10/10 06:25:17;;;;;;;;;;;15.90;99.80;;;;;;5086237;28;19912;-70
2023/10/10 06:27:46;;;;;;;;;;;15.90;99.90;;;;;;5079692;28;19926;-70
2023/10/10 06:30:17;;;;;;;;;;;15.90;99.80;;;;;;5088888;28;19972;-70
2023/10/10 06:32:43;;;;;;;;;;;15.90;99.80;;;;;;5088358;28;20015;-70
2023/10/10 06:37:45;;;;;;;;;;;15.90;99.80;;;;;;5088594;28;20011;-70
2023/10/10 06:40:11;;;;;;;;;;;15.90;99.80;;;;;;5088392;28;19990;-70
2023/10/10 06:42:37;;;;;;;;;;;15.90;99.80;;;;;;5087985;28;20427;-70
2023/10/10 06:45:11;;;;;;;;;;;15.80;99.80;;;;;;5088270;28;19908;-70
2023/10/10 06:47:41;;;;;;;;;;;15.90;99.80;;;;;;5091717;28;19980;-70
2023/10/10 06:50:12;;;;;;;;;;;15.90;99.80;;;;;;5103869;28;19908;-69
2023/10/10 06:52:37;;;;;;;;;;;15.80;99.70;;;;;;5104062;28;19939;-69
2023/10/10 06:55:22;;;;;;;;;;;15.90;99.80;;;;;;5107967;27;20255;-70
2023/10/10 06:58:01;;;;;;;;;;;15.90;99.80;;;;;;5093116;28;19908;-70
2023/10/10 07:00:44;;;;;;;;;;;15.90;99.70;;;;;;5084062;28;19961;-70
2023/10/10 07:03:10;;;;;;;;;;;15.80;99.70;;;;;;5081881;28;19912;-70
2023/10/10 07:05:39;;;;;;;;;;;15.90;99.70;;;;;;5076347;28;19920;-70
2023/10/10 07:08:24;;;;;;;;;;;15.90;99.70;;;;;;5086744;28;19923;-70
2023/10/10 07:10:50;;;;;;;;;;;15.90;99.70;;;;;;5090037;28;20005;-70
2023/10/10 07:13:19;;;;;;;;;;;15.90;99.70;;;;;;5087991;28;20009;-70
2023/10/10 07:15:51;;;;;;;;;;;15.90;99.70;;;;;;5088061;28;19916;-70
2023/10/10 07:18:22;;;;;;;;;;;15.90;99.60;;;;;;5086813;28;19912;-70
2023/10/10 07:21:04;;;;;;;;;;;15.90;99.60;;;;;;5087367;28;19912;-70
2023/10/10 07:23:37;;;;;;;;;;;15.90;99.60;;;;;;5090438;28;19913;-70
2023/10/10 07:26:20;;;;;;;;;;;15.90;99.60;;;;;;5091094;28;19920;-70
2023/10/10 07:28:49;;;;;;;;;;;15.90;99.50;;;;;;5084251;28;19919;-70
2023/10/10 07:31:18;;;;;;;;;;;15.90;99.50;;;;;;5082362;28;20623;-70
2023/10/10 07:33:44;;;;;;;;;;;15.90;99.50;;;;;;5077167;28;19999;-70
2023/10/10 07:36:13;;;;;;;;;;;15.90;99.50;;;;;;5091401;28;19908;-70
2023/10/10 07:38:39;;;;;;;;;;;15.90;99.50;;;;;;5099124;28;19951;-70
2023/10/10 07:41:04;;;;;;;;;;;16.00;99.50;;;;;;5091949;28;19908;-70
2023/10/10 07:43:34;;;;;;;;;;;16.00;99.60;;;;;;5091340;28;19915;-70
2023/10/10 07:46:18;;;;;;;;;;;16.00;99.60;;;;;;5087334;28;19912;-70
2023/10/10 07:48:46;;;;;;;;;;;16.00;99.50;;;;;;5090844;28;19951;-70
2023/10/10 07:51:16;;;;;;;;;;;16.00;99.50;;;;;;5092526;28;19965;-70
2023/10/10 07:53:43;;;;;;;;;;;16.10;99.50;;;;;;5091815;28;20015;-70
2023/10/10 07:56:08;;;;;;;;;;;16.10;99.50;;;;;;5111237;27;20274;-70
2023/10/10 07:58:43;;;;;;;;;;;16.10;99.40;;;;;;5107505;28;19957;-70
2023/10/10 08:01:10;;;;;;;;;;;16.10;99.50;;;;;;5100396;28;19908;-70
2023/10/10 08:03:36;;;;;;;;;;;16.10;99.40;;;;;;5091634;28;19964;-70
2023/10/10 08:06:02;;;;;;;;;;;16.20;99.40;;;;;;5092138;28;19959;-70
2023/10/10 08:08:27;;;;;;;;;;;16.20;99.30;;;;;;5090364;28;19919;-70
2023/10/10 08:10:53;;;;;;;;;;;16.20;99.30;;;;;;5090216;28;19935;-70
2023/10/10 08:13:20;;;;;;;;;;;16.20;99.40;;;;;;5091725;28;20478;-70
2023/10/10 08:15:56;;;;;;;;;;;16.20;99.20;;;;;;5091004;28;20699;-70
2023/10/10 08:18:49;;;;;;;;;;;16.30;99.20;;;;;;5093077;28;19916;-69
2023/10/10 08:21:14;;;;;;;;;;;16.30;99.50;;;;;;5085142;28;19948;-70
2023/10/10 08:23:42;;;;;;;;;;;16.30;99.20;;;;;;5090922;28;19974;-70
2023/10/10 08:26:26;;;;;;;;;;;16.30;99.30;;;;;;5091051;28;19939;-70
2023/10/10 08:28:52;;;;;;;;;;;16.40;99.20;;;;;;5089833;28;19961;-70
2023/10/10 08:31:18;;;;;;;;;;;16.40;99.10;;;;;;5091135;28;19912;-70
2023/10/10 08:33:46;;;;;;;;;;;16.40;99.10;;;;;;5090942;28;19916;-70
2023/10/10 08:36:25;;;;;;;;;;;16.50;99.00;;;;;;5089378;28;19954;-70
2023/10/10 08:38:56;;;;;;;;;;;16.50;99.20;;;;;;5089773;28;19908;-70
2023/10/10 08:41:22;;;;;;;;;;;16.50;99.00;;;;;;5096211;28;19911;-70
2023/10/10 08:43:57;;;;;;;;;;;16.50;98.90;;;;;;5092398;28;20347;-70
2023/10/10 08:46:30;;;;;;;;;;;16.50;98.90;;;;;;5090996;28;19912;-69
2023/10/10 08:48:59;;;;;;;;;;;16.60;99.10;;;;;;5091193;28;19915;-69
2023/10/10 08:51:26;;;;;;;;;;;16.60;98.90;;;;;;5090802;28;19919;-70
2023/10/10 08:53:52;;;;;;;;;;;16.60;98.90;;;;;;5090630;28;19920;-70
2023/10/10 08:56:18;;;;;;;;;;;16.60;99.00;;;;;;5090614;28;20392;-70
2023/10/10 08:58:44;;;;;;;;;;;16.70;98.80;;;;;;5098905;28;19915;-70
2023/10/10 09:01:09;;;;;;;;;;;16.70;98.90;;;;;;5090445;28;19921;-70
2023/10/10 09:03:35;;;;;;;;;;;16.70;98.90;;;;;;5095505;28;19927;-70
2023/10/10 09:06:21;;;;;;;;;;;16.70;98.80;;;;;;5090541;28;19912;-70
2023/10/10 09:08:50;;;;;;;;;;;16.80;98.70;;;;;;5089744;28;19912;-70
2023/10/10 09:11:20;;;;;;;;;;;16.80;98.70;;;;;;5098771;28;19919;-70
2023/10/10 09:13:51;;;;;;;;;;;16.90;98.80;;;;;;5090162;28;19911;-69
2023/10/10 09:16:19;;;;;;;;;;;16.90;98.60;;;;;;5089430;28;19973;-69
2023/10/10 09:19:04;;;;;;;;;;;16.90;98.70;;;;;;5100494;28;20269;-69
2023/10/10 09:21:30;;;;;;;;;;;17.00;98.40;;;;;;5090549;28;20517;-69
2023/10/10 09:24:25;;;;;;;;;;;17.00;98.30;;;;;;5099282;28;19999;-69
2023/10/10 09:26:52;;;;;;;;;;;17.10;98.20;;;;;;5089550;28;19947;-69
2023/10/10 09:29:42;;;;;;;;;;;17.10;98.40;;;;;;5096025;28;19908;-69
2023/10/10 09:32:15;;;;;;;;;;;17.10;98.20;;;;;;5086380;28;19907;-70
2023/10/10 09:34:43;;;;;;;;;;;17.20;98.20;;;;;;5091891;28;19961;-70
2023/10/10 09:37:10;;;;;;;;;;;17.20;98.20;;;;;;5089981;28;20442;-70
2023/10/10 09:39:36;;;;;;;;;;;17.20;98.10;;;;;;5089317;28;19909;-69
2023/10/10 09:47:52;;;;;;;;;;;17.30;98.10;;;;;;5097347;28;19941;-70
2023/10/10 09:52:50;;;;;;;;;;;17.40;98.00;;;;;;5099274;28;19916;-71
2023/10/10 10:00:45;;;;;;;;;;;17.50;97.80;;;;;;5101095;28;20401;-71
2023/10/10 10:03:31;;;;;;;;;;;17.50;97.80;;;;;;5090348;28;19912;-71
2023/10/10 10:06:27;;;;;;;;;;;17.60;97.70;;;;;;5088130;28;19965;-71
2023/10/10 10:09:08;;;;;;;;;;;17.60;97.70;;;;;;5096758;28;19957;-71
2023/10/10 10:11:43;;;;;;;;;;;17.60;97.60;;;;;;5088578;28;19908;-71
2023/10/10 10:14:22;;;;;;;;;;;17.60;97.60;;;;;;5078132;28;19977;-71
2023/10/10 10:16:53;;;;;;;;;;;17.70;97.70;;;;;;5097707;28;19911;-71
2023/10/10 10:19:20;;;;;;;;;;;17.70;97.60;;;;;;5085812;28;20006;-71
2023/10/10 10:21:54;;;;;;;;;;;17.70;97.60;;;;;;5086841;28;19993;-72
2023/10/10 10:24:30;;;;;;;;;;;17.80;97.60;;;;;;5101443;28;19916;-71
2023/10/10 10:29:56;;;;;;;;;;;17.80;97.50;;;;;;5079913;28;19919;-70
2023/10/10 10:32:24;;;;;;;;;;;17.80;97.40;;;;;;5080042;28;19919;-70
2023/10/10 10:34:55;;;;;;;;;;;17.90;97.40;;;;;;5085950;28;19912;-70
2023/10/10 10:37:23;;;;;;;;;;;17.90;97.30;;;;;;5086248;28;19915;-70
2023/10/10 10:42:47;;;;;;;;;;;18.00;97.30;;;;;;5088322;28;19915;-71
2023/10/10 10:45:40;;;;;;;;;;;18.00;97.30;;;;;;5085686;28;19915;-70
2023/10/10 10:48:28;;;;;;;;;;;18.10;97.20;;;;;;5092803;28;19912;-70
2023/10/10 10:50:59;;;;;;;;;;;18.00;97.30;;;;;;5098088;28;19919;-71
2023/10/10 10:53:50;;;;;;;;;;;18.10;97.30;;;;;;5087547;28;19916;-71
2023/10/10 11:01:28;;;;;;;;;;;18.20;97.00;;;;;;5100894;28;19918;-71
2023/10/10 11:03:55;;;;;;;;;;;18.20;97.00;;;;;;5096274;28;19991;-71
2023/10/10 11:06:21;;;;;;;;;;;18.20;96.80;;;;;;5084136;28;19947;-71
2023/10/10 11:11:27;;;;;;;;;;;18.30;96.70;;;;;;5089510;28;19944;-71
2023/10/10 11:14:19;;;;;;;;;;;18.40;96.70;;;;;;5095301;28;19920;-71
2023/10/10 11:16:46;;;;;;;;;;;18.40;96.70;;;;;;5107942;28;19919;-71
2023/10/10 11:19:25;;;;;;;;;;;18.50;96.70;;;;;;5098467;28;19980;-71
2023/10/10 11:21:53;;;;;;;;;;;18.50;96.50;;;;;;5088155;28;20507;-70
2023/10/10 11:24:26;;;;;;;;;;;18.60;96.60;;;;;;5085675;28;19908;-70
2023/10/10 11:29:29;;;;;;;;;;;18.70;96.80;;;;;;5086648;28;20342;-70
2023/10/10 11:32:06;;;;;;;;;;;18.70;96.60;;;;;;5097922;28;19919;-70
2023/10/10 11:34:42;;;;;;;;;;;18.80;96.70;;;;;;5089588;28;20353;-71
2023/10/10 11:37:17;;;;;;;;;;;18.80;96.20;;;;;;5083723;28;19908;-71
2023/10/10 11:39:53;;;;;;;;;;;18.90;96.60;;;;;;5090510;28;19912;-70
2023/10/10 11:42:28;;;;;;;;;;;19.00;96.10;;;;;;5090644;28;19976;-71
2023/10/10 11:44:59;;;;;;;;;;;19.00;96.30;;;;;;5115237;27;20702;-71
2023/10/10 11:47:26;;;;;;;;;;;19.00;96.10;;;;;;5091966;28;19919;-70
2023/10/10 11:50:01;;;;;;;;;;;19.10;96.00;;;;;;5091308;28;19912;-70
2023/10/10 11:52:27;;;;;;;;;;;19.10;96.60;;;;;;5092313;28;20338;-70
2023/10/10 11:54:55;;;;;;;;;;;19.20;95.50;;;;;;5091059;28;20445;-70
2023/10/10 11:57:20;;;;;;;;;;;19.30;95.80;;;;;;5090637;28;19970;-70
2023/10/10 11:59:46;;;;;;;;;;;19.30;96.70;;;;;;5091845;28;19959;-70
2023/10/10 12:02:18;;;;;;;;;;;19.40;96.80;;;;;;5098277;28;19991;-71
2023/10/10 12:04:47;;;;;;;;;;;19.40;96.20;;;;;;5091411;28;19912;-71
2023/10/10 12:07:14;;;;;;;;;;;19.40;96.60;;;;;;5091692;28;20014;-70
2023/10/10 12:09:44;;;;;;;;;;;19.50;96.70;;;;;;5100232;28;19911;-71
2023/10/10 12:12:10;;;;;;;;;;;19.60;96.60;;;;;;5091756;28;19952;-70
2023/10/10 12:14:36;;;;;;;;;;;19.60;96.40;;;;;;5091218;28;19955;-71
2023/10/10 12:17:05;;;;;;;;;;;19.60;95.20;;;;;;5095511;28;20498;-71
2023/10/10 12:19:36;;;;;;;;;;;19.70;96.60;;;;;;5090465;28;19965;-70
2023/10/10 12:22:08;;;;;;;;;;;19.70;96.70;;;;;;5083824;28;19928;-70
2023/10/10 12:24:34;;;;;;;;;;;19.80;96.90;;;;;;5091255;28;20303;-71
2023/10/10 12:26:59;;;;;;;;;;;19.80;96.10;;;;;;5090568;28;19955;-71
2023/10/10 12:29:25;;;;;;;;;;;19.80;96.60;;;;;;5098839;28;19955;-70
2023/10/10 12:31:55;;;;;;;;;;;19.90;96.70;;;;;;5092120;28;20348;-71
2023/10/10 12:34:24;;;;;;;;;;;20.00;96.70;;;;;;5093949;28;19955;-70
2023/10/10 12:36:59;;;;;;;;;;;20.00;96.70;;;;;;5089734;28;19937;-70
2023/10/10 12:39:28;;;;;;;;;;;20.00;96.80;;;;;;5090784;28;19912;-71
2023/10/10 12:41:54;;;;;;;;;;;20.10;96.70;;;;;;5088700;28;19916;-71
2023/10/10 12:44:20;;;;;;;;;;;20.10;96.50;;;;;;5096087;28;20006;-71
2023/10/10 12:46:45;;;;;;;;;;;20.20;95.90;;;;;;5099530;28;19998;-71
2023/10/10 12:49:11;;;;;;;;;;;20.20;96.20;;;;;;5090766;28;19955;-71
2023/10/10 12:51:44;;;;;;;;;;;20.20;95.30;;;;;;5099124;28;19916;-71
2023/10/10 12:54:12;;;;;;;;;;;20.30;95.90;;;;;;5086052;28;19960;-71
2023/10/10 12:56:48;;;;;;;;;;;20.30;95.90;;;;;;5093715;28;20312;-71
2023/10/10 12:59:18;;;;;;;;;;;20.30;95.60;;;;;;5089226;28;20483;-71
2023/10/10 13:01:44;;;;;;;;;;;20.40;95.50;;;;;;5089410;28;19954;-71
2023/10/10 13:04:11;;;;;;;;;;;20.40;96.80;;;;;;5090889;28;20041;-71
2023/10/10 13:06:39;;;;;;;;;;;20.40;96.90;;;;;;5090258;28;19919;-71
2023/10/10 13:09:05;;;;;;;;;;;20.50;97.20;;;;;;5090508;28;19909;-71
2023/10/10 13:11:43;;;;;;;;;;;20.50;97.00;;;;;;5090850;28;19908;-71
2023/10/10 13:14:10;;;;;;;;;;;20.50;96.90;;;;;;5104953;28;19962;-71
2023/10/10 13:19:11;;;;;;;;;;;20.60;96.80;;;;;;5083612;28;20507;-71
2023/10/10 13:21:37;;;;;;;;;;;20.60;97.10;;;;;;5090713;28;19972;-72
2023/10/10 13:24:03;;;;;;;;;;;20.60;97.00;;;;;;5089562;28;20581;-71
2023/10/10 13:26:28;;;;;;;;;;;20.70;96.60;;;;;;5090453;28;19916;-71
2023/10/10 13:29:02;;;;;;;;;;;20.70;97.10;;;;;;5136445;27;20318;-71
2023/10/10 13:31:29;;;;;;;;;;;20.70;97.00;;;;;;5127758;27;19912;-71
2023/10/10 13:33:55;;;;;;;;;;;20.70;97.10;;;;;;5123769;27;20006;-71
2023/10/10 13:36:20;;;;;;;;;;;20.70;97.00;;;;;;5126275;27;20045;-72
2023/10/10 13:38:47;;;;;;;;;;;20.80;96.80;;;;;;5127229;27;19907;-71
2023/10/10 13:41:19;;;;;;;;;;;20.80;96.80;;;;;;5127107;27;19915;-72
2023/10/10 13:43:46;;;;;;;;;;;20.80;97.00;;;;;;5143051;27;19968;-71
2023/10/10 13:46:16;;;;;;;;;;;20.90;97.20;;;;;;5127099;27;19957;-72
2023/10/10 13:48:41;;;;;;;;;;;20.90;96.90;;;;;;5136679;27;19915;-72
2023/10/10 13:51:07;;;;;;;;;;;20.80;97.10;;;;;;5128054;27;19933;-71
2023/10/10 13:53:33;;;;;;;;;;;20.80;97.20;;;;;;5127853;27;19919;-71
2023/10/10 13:56:04;;;;;;;;;;;20.80;97.20;;;;;;5127265;27;19958;-72
2023/10/10 13:58:30;;;;;;;;;;;20.80;97.20;;;;;;5127614;27;19918;-71
2023/10/10 14:01:04;;;;;;;;;;;20.80;97.20;;;;;;5135811;27;19912;-71
2023/10/10 14:03:29;;;;;;;;;;;20.80;97.70;;;;;;5131546;27;19911;-71
2023/10/10 14:06:10;;;;;;;;;;;20.80;97.50;;;;;;5116513;27;19912;-71
2023/10/10 14:08:35;;;;;;;;;;;20.90;97.80;;;;;;5114507;27;19972;-72
2023/10/10 14:11:01;;;;;;;;;;;20.90;97.70;;;;;;5128873;27;19911;-71
2023/10/10 14:13:30;;;;;;;;;;;20.90;97.70;;;;;;5131774;27;19912;-71
2023/10/10 14:15:59;;;;;;;;;;;20.90;97.70;;;;;;5125770;27;19912;-71
2023/10/10 14:18:24;;;;;;;;;;;20.90;97.40;;;;;;5136770;27;19907;-72
2023/10/10 14:20:50;;;;;;;;;;;20.90;97.60;;;;;;5112733;27;19916;-72
2023/10/10 14:23:19;;;;;;;;;;;20.90;97.50;;;;;;5127820;27;19908;-71
2023/10/10 14:25:47;;;;;;;;;;;20.90;97.50;;;;;;5120968;27;19927;-72
2023/10/10 14:28:16;;;;;;;;;;;20.90;97.50;;;;;;5122515;28;20442;-71
2023/10/10 14:30:48;;;;;;;;;;;20.90;97.50;;;;;;5123377;27;19951;-72
2023/10/10 14:33:15;;;;;;;;;;;20.90;97.30;;;;;;5122156;27;19912;-72
2023/10/10 14:35:41;;;;;;;;;;;20.90;97.10;;;;;;5115152;27;19994;-72
2023/10/10 14:38:07;;;;;;;;;;;21.00;97.50;;;;;;5121863;27;19912;-72
2023/10/10 14:40:33;;;;;;;;;;;21.00;97.40;;;;;;5105489;28;19915;-72
2023/10/10 14:42:59;;;;;;;;;;;20.90;97.00;;;;;;5112108;28;19919;-72
2023/10/10 14:45:28;;;;;;;;;;;21.00;97.10;;;;;;5110800;27;20280;-72
2023/10/10 14:47:55;;;;;;;;;;;21.00;97.20;;;;;;5117387;27;19927;-72
2023/10/10 14:50:23;;;;;;;;;;;21.00;97.10;;;;;;5117178;27;19911;-72
2023/10/10 14:52:50;;;;;;;;;;;20.90;97.40;;;;;;5120248;27;19932;-72
2023/10/10 14:55:25;;;;;;;;;;;20.90;97.20;;;;;;5120300;27;20395;-72
2023/10/10 14:57:57;;;;;;;;;;;20.90;97.30;;;;;;5111499;28;19962;-72
2023/10/10 15:00:28;;;;;;;;;;;20.90;97.50;;;;;;5122836;27;19919;-72
2023/10/10 15:02:54;;;;;;;;;;;20.90;97.50;;;;;;5112044;27;19943;-72
2023/10/10 15:05:20;;;;;;;;;;;20.80;97.60;;;;;;5119170;27;20507;-72
2023/10/10 15:07:46;;;;;;;;;;;20.90;97.30;;;;;;5111225;28;20327;-72
2023/10/10 15:10:11;;;;;;;;;;;20.90;97.30;;;;;;5117752;27;20045;-72
2023/10/10 15:12:37;;;;;;;;;;;20.80;97.00;;;;;;5111405;28;20417;-72
2023/10/10 15:15:02;;;;;;;;;;;20.80;96.60;;;;;;5114410;27;19996;-72
2023/10/10 15:17:28;;;;;;;;;;;20.80;96.30;;;;;;5120604;27;20003;-72
2023/10/10 15:19:53;;;;;;;;;;;20.80;96.30;;;;;;5115946;27;20532;-72
2023/10/10 15:22:19;;;;;;;;;;;20.80;96.10;;;;;;5116812;27;19915;-72
2023/10/10 15:24:49;;;;;;;;;;;20.80;95.80;;;;;;5113497;27;19912;-73
2023/10/10 15:27:16;;;;;;;;;;;20.80;96.00;;;;;;5124554;27;20002;-72
2023/10/10 15:29:42;;;;;;;;;;;20.80;95.90;;;;;;5121431;27;19911;-72
2023/10/10 15:32:08;;;;;;;;;;;20.70;96.00;;;;;;5115250;27;20530;-72
2023/10/10 15:34:34;;;;;;;;;;;20.80;96.10;;;;;;5117128;27;19914;-72
2023/10/10 15:37:09;;;;;;;;;;;20.80;96.10;;;;;;5117843;27;20030;-72
2023/10/10 15:39:38;;;;;;;;;;;20.80;96.10;;;;;;5119551;27;19918;-72
2023/10/10 15:42:04;;;;;;;;;;;20.70;95.60;;;;;;5096810;27;19908;-72
2023/10/10 15:44:30;;;;;;;;;;;20.70;96.10;;;;;;5109937;27;20019;-72
2023/10/10 15:46:58;;;;;;;;;;;20.70;96.10;;;;;;5120086;27;20367;-72
2023/10/10 15:49:25;;;;;;;;;;;20.60;96.20;;;;;;5110772;28;19931;-72
2023/10/10 15:51:52;;;;;;;;;;;20.60;96.20;;;;;;5110758;27;20332;-72
2023/10/10 15:54:19;;;;;;;;;;;20.60;96.20;;;;;;5122214;27;20382;-72
2023/10/10 15:56:46;;;;;;;;;;;20.60;96.30;;;;;;5113453;27;19908;-72
2023/10/10 15:59:15;;;;;;;;;;;20.50;96.40;;;;;;5122296;27;19994;-72
2023/10/10 16:01:46;;;;;;;;;;;20.50;96.50;;;;;;5110050;28;20523;-72
2023/10/10 16:04:17;;;;;;;;;;;20.50;96.70;;;;;;5111914;27;20614;-72
2023/10/10 16:06:47;;;;;;;;;;;20.50;96.70;;;;;;5124145;27;19919;-72
2023/10/10 16:09:29;;;;;;;;;;;20.40;96.70;;;;;;5117925;27;19915;-72
2023/10/10 16:11:55;;;;;;;;;;;20.40;96.70;;;;;;5119011;27;19911;-72
2023/10/10 16:14:21;;;;;;;;;;;20.40;96.60;;;;;;5116019;27;20353;-72
2023/10/10 16:16:47;;;;;;;;;;;20.40;96.70;;;;;;5112169;27;19929;-72
2023/10/10 16:19:14;;;;;;;;;;;20.40;96.50;;;;;;5109800;28;20349;-72
2023/10/10 16:21:40;;;;;;;;;;;20.40;96.70;;;;;;5111851;27;19912;-72
2023/10/10 16:24:07;;;;;;;;;;;20.30;96.70;;;;;;5109654;28;19918;-72
2023/10/10 16:26:32;;;;;;;;;;;20.30;96.70;;;;;;5108165;28;20003;-72
2023/10/10 16:28:58;;;;;;;;;;;20.30;96.80;;;;;;5108913;28;20010;-72
2023/10/10 16:31:31;;;;;;;;;;;20.20;96.90;;;;;;5113693;27;20000;-73
2023/10/10 16:33:57;;;;;;;;;;;20.20;96.80;;;;;;5104981;28;19912;-72
2023/10/10 16:36:22;;;;;;;;;;;20.10;96.90;;;;;;5108553;28;20096;-72
2023/10/10 16:38:49;;;;;;;;;;;20.10;96.90;;;;;;5109790;28;20542;-72
2023/10/10 16:41:19;;;;;;;;;;;20.10;97.00;;;;;;5111005;27;20379;-72
2023/10/10 16:43:46;;;;;;;;;;;20.10;97.00;;;;;;5106141;28;20023;-72
2023/10/10 16:46:12;;;;;;;;;;;20.00;97.10;;;;;;5107183;28;20370;-72
2023/10/10 16:48:44;;;;;;;;;;;20.00;97.10;;;;;;5109232;27;19923;-72
2023/10/10 16:51:12;;;;;;;;;;;19.90;97.20;;;;;;5109280;27;20324;-72
2023/10/10 16:53:39;;;;;;;;;;;19.90;97.20;;;;;;5108597;27;19912;-72
2023/10/10 16:56:08;;;;;;;;;;;19.80;97.20;;;;;;5108283;27;20485;-72
2023/10/10 16:58:34;;;;;;;;;;;19.80;97.30;;;;;;5105502;28;19916;-72
2023/10/10 17:01:01;;;;;;;;;;;19.70;97.20;;;;;;5107029;28;19912;-72
2023/10/10 17:03:26;;;;;;;;;;;19.60;97.40;;;;;;5107267;27;19988;-72
2023/10/10 17:05:52;;;;;;;;;;;19.70;97.40;;;;;;5106748;27;19907;-72
2023/10/10 17:08:18;;;;;;;;;;;19.60;97.40;;;;;;5105148;28;19923;-72
2023/10/10 17:10:45;;;;;;;;;;;19.60;97.40;;;;;;5102810;27;19933;-72
2023/10/10 17:13:11;;;;;;;;;;;19.50;97.50;;;;;;5104534;28;19953;-72